createdAt,value
2023-01-19T00:01:00.763Z,77.50
2023-01-19T00:06:06.584Z,77.91
2023-01-19T00:11:10.224Z,78.66
2023-01-19T00:16:15.532Z,79.32
2023-01-19T00:21:19.664Z,79.53
2023-01-19T00:26:23.306Z,80.05
2023-01-19T00:31:28.655Z,80.16
2023-01-19T00:36:32.606Z,80.92
2023-01-19T00:41:36.259Z,80.34
2023-01-19T00:46:41.567Z,80.00
2023-01-19T00:51:46.094Z,80.46
2023-01-19T00:56:49.705Z,80.69
2023-01-19T01:01:55.296Z,81.37
2023-01-19T01:06:59.043Z,82.15
2023-01-19T01:12:02.740Z,82.50
2023-01-19T01:17:09.087Z,83.53
2023-01-19T01:22:12.737Z,85.02
2023-01-19T01:27:16.448Z,85.90
2023-01-19T01:32:21.747Z,86.78
2023-01-19T01:37:25.386Z,87.00
2023-01-19T01:42:31.853Z,89.43
2023-01-19T01:47:42.274Z,91.25
2023-01-19T01:53:07.419Z,92.80
2023-01-19T01:58:13.450Z,92.54
2023-01-19T02:03:18.846Z,91.73
2023-01-19T02:08:28.555Z,91.32
2023-01-19T02:13:34.849Z,91.76
2023-01-19T02:18:41.105Z,91.89
2023-01-19T02:23:48.341Z,90.17
2023-01-19T02:28:57.419Z,91.50
2023-01-19T02:34:02.840Z,93.00
2023-01-19T02:39:11.453Z,92.00
2023-01-19T02:44:17.376Z,94.21
2023-01-19T02:49:21.033Z,93.62
2023-01-19T02:54:37.313Z,95.19
2023-01-19T02:59:56.402Z,94.67
2023-01-19T03:05:20.451Z,93.44
2023-01-19T03:10:35.282Z,94.68
2023-01-19T03:15:44.645Z,95.78
2023-01-19T03:20:51.836Z,96.06
2023-01-19T03:25:58.748Z,97.82
2023-01-19T03:31:06.484Z,98.70
2023-01-19T03:36:14.774Z,99.54
2023-01-19T03:41:23.004Z,100.00
2023-01-19T03:46:27.578Z,100.00
2023-01-19T03:51:31.367Z,100.00
2023-01-19T03:56:36.806Z,100.00
2023-01-19T04:01:40.485Z,100.00
2023-01-19T04:06:44.567Z,100.00
2023-01-19T04:11:49.892Z,100.00
2023-01-19T04:16:53.525Z,99.77
2023-01-19T04:21:57.140Z,100.00
2023-01-19T04:27:02.458Z,100.00
2023-01-19T04:32:06.636Z,100.00
2023-01-19T04:37:10.510Z,100.00
2023-01-19T04:42:15.823Z,100.00
2023-01-19T04:47:19.647Z,100.00
2023-01-19T04:52:23.327Z,100.00
2023-01-19T04:57:28.590Z,100.00
2023-01-19T05:02:32.247Z,100.00
2023-01-19T05:07:35.946Z,100.00
2023-01-19T05:12:41.221Z,100.00
2023-01-19T05:17:44.886Z,100.00
2023-01-19T05:22:50.800Z,99.86
2023-01-19T05:27:56.122Z,100.00
2023-01-19T05:33:00.606Z,100.00
2023-01-19T05:38:04.564Z,100.00
2023-01-19T05:43:09.907Z,100.00
2023-01-19T05:48:13.499Z,100.00
2023-01-19T05:53:18.079Z,99.32
2023-01-19T05:58:23.361Z,96.45
2023-01-19T06:03:27.085Z,95.53
2023-01-19T06:08:30.750Z,95.62
2023-01-19T06:13:36.228Z,96.39
2023-01-19T06:18:39.984Z,95.36
2023-01-19T06:23:43.580Z,94.84
2023-01-19T06:28:48.950Z,94.11
2023-01-19T06:33:52.585Z,94.23
2023-01-19T06:38:56.236Z,95.20
2023-01-19T06:44:01.722Z,95.21
2023-01-19T06:49:05.419Z,93.28
2023-01-19T06:54:09.146Z,92.79
2023-01-19T06:59:14.439Z,92.56
2023-01-19T07:04:18.064Z,92.40
2023-01-19T07:09:21.819Z,93.02
2023-01-19T07:14:27.168Z,93.33
2023-01-19T07:19:31.567Z,93.94
2023-01-19T07:24:35.195Z,94.32
2023-01-19T07:29:41.278Z,96.03
2023-01-19T07:34:44.932Z,96.20
2023-01-19T07:39:48.564Z,94.80
2023-01-19T07:44:53.874Z,94.64
2023-01-19T07:49:57.634Z,93.96
2023-01-19T07:55:01.297Z,93.38
2023-01-19T08:00:07.678Z,93.05
2023-01-19T08:05:11.482Z,93.36
2023-01-19T08:10:15.999Z,92.96
2023-01-19T08:15:21.498Z,92.38
2023-01-19T08:20:25.985Z,91.23
2023-01-19T08:25:33.991Z,90.26
2023-01-19T08:30:39.602Z,90.65
2023-01-19T08:35:44.281Z,90.11
2023-01-19T08:40:49.619Z,89.30
2023-01-19T08:45:54.954Z,89.19
2023-01-19T08:50:58.948Z,89.02
2023-01-19T08:56:02.638Z,88.90
2023-01-19T09:01:08.852Z,88.53
2023-01-19T09:06:14.175Z,88.31
2023-01-19T09:11:18.446Z,87.95
2023-01-19T09:16:23.867Z,88.31
2023-01-19T09:21:28.168Z,88.92
2023-01-19T09:26:33.100Z,88.85
2023-01-19T09:31:38.729Z,88.95
2023-01-19T09:36:42.390Z,89.04
2023-01-19T09:41:49.876Z,89.07
2023-01-19T09:46:55.262Z,89.71
2023-01-19T09:52:00.131Z,89.64
2023-01-19T09:57:05.020Z,89.24
2023-01-19T10:02:22.472Z,88.97
2023-01-19T10:07:53.882Z,88.05
2023-01-19T10:13:12.141Z,87.49
2023-01-19T10:18:24.027Z,86.25
2023-01-19T10:23:37.350Z,86.62
2023-01-19T10:28:41.525Z,86.40
2023-01-19T10:33:47.083Z,86.96
2023-01-19T10:38:50.896Z,85.90
2023-01-19T10:44:01.481Z,86.03
2023-01-19T10:49:07.480Z,85.28
2023-01-19T10:54:14.213Z,84.56
2023-01-19T10:59:32.955Z,84.14
2023-01-19T11:04:38.432Z,83.67
2023-01-19T11:09:42.173Z,83.47
2023-01-19T11:14:46.348Z,82.30
2023-01-19T11:20:02.567Z,81.11
2023-01-19T11:25:07.236Z,82.08
2023-01-19T11:30:22.912Z,80.68
2023-01-19T11:35:42.705Z,81.63
2023-01-19T11:40:53.272Z,81.99
2023-01-19T11:45:58.160Z,82.76
2023-01-19T11:51:06.596Z,83.44
2023-01-19T11:56:11.904Z,84.58
2023-01-19T12:01:21.953Z,86.46
2023-01-19T12:06:32.248Z,87.68
2023-01-19T12:11:39.508Z,88.60
2023-01-19T12:16:44.444Z,88.00
2023-01-19T12:21:50.586Z,88.79
2023-01-19T12:26:57.124Z,89.38
2023-01-19T12:32:20.282Z,90.18
2023-01-19T12:37:41.256Z,90.61
2023-01-19T12:42:48.167Z,90.37
2023-01-19T12:47:55.582Z,91.08
2023-01-19T12:53:03.435Z,90.38
2023-01-19T12:58:13.594Z,90.32
2023-01-19T13:03:58.418Z,89.83
2023-01-19T13:09:03.723Z,87.91
2023-01-19T13:14:36.476Z,86.45
2023-01-19T13:20:05.852Z,85.14
2023-01-19T13:25:13.708Z,84.00
2023-01-19T13:30:21.696Z,84.10
2023-01-19T13:35:25.603Z,83.81
2023-01-19T13:40:38.208Z,84.21
2023-01-19T13:45:42.630Z,83.56
2023-01-19T13:50:58.334Z,82.87
2023-01-19T13:56:18.617Z,82.56
2023-01-19T14:01:23.801Z,82.12
2023-01-19T14:06:35.421Z,84.06
2023-01-19T14:11:40.796Z,85.16
2023-01-19T14:16:45.107Z,85.20
2023-01-19T14:21:59.850Z,86.43
2023-01-19T14:27:21.606Z,86.36
2023-01-19T14:32:26.218Z,87.06
2023-01-19T14:37:32.100Z,88.33
2023-01-19T14:42:40.118Z,88.86
2023-01-19T14:47:45.747Z,89.91
2023-01-19T14:52:56.309Z,90.05
2023-01-19T14:58:01.660Z,90.12
2023-01-19T15:03:05.365Z,90.25
2023-01-19T15:08:11.911Z,90.73
2023-01-19T15:13:22.809Z,91.80
2023-01-19T15:18:28.182Z,92.04
2023-01-19T15:23:32.133Z,92.09
2023-01-19T15:28:37.447Z,91.60
2023-01-19T15:33:41.116Z,91.63
2023-01-19T15:38:44.895Z,92.02
2023-01-19T15:43:50.388Z,91.61
2023-01-19T15:48:54.904Z,90.73
2023-01-19T15:53:58.489Z,89.28
2023-01-19T15:59:03.766Z,89.69
2023-01-19T16:04:09.809Z,88.93
2023-01-19T16:09:13.472Z,89.44
2023-01-19T16:14:18.731Z,88.86
2023-01-19T16:19:22.352Z,88.59
2023-01-19T16:24:26.105Z,88.86
2023-01-19T16:29:31.508Z,86.85
2023-01-19T16:34:36.008Z,85.13
2023-01-19T16:39:39.844Z,83.44
2023-01-19T16:44:45.146Z,80.68
2023-01-19T16:49:48.817Z,78.56
2023-01-19T16:54:52.555Z,77.49
2023-01-19T16:59:57.834Z,74.29
2023-01-19T17:05:01.463Z,75.98
2023-01-19T17:10:05.734Z,73.94
2023-01-19T17:15:11.962Z,72.12
2023-01-19T17:20:15.876Z,72.19
2023-01-19T17:25:19.508Z,70.90
2023-01-19T17:30:24.874Z,69.80
2023-01-19T17:35:29.266Z,68.55
2023-01-19T17:40:33.760Z,67.88
2023-01-19T17:45:39.409Z,66.97
2023-01-19T17:50:43.092Z,66.59
2023-01-19T17:55:46.700Z,62.65
2023-01-19T18:00:52.015Z,64.70
2023-01-19T18:05:55.920Z,65.08
2023-01-19T18:11:00.816Z,64.38
2023-01-19T18:16:08.533Z,62.31
2023-01-19T18:21:14.013Z,63.64
2023-01-19T18:26:18.957Z,60.23
2023-01-19T18:31:24.360Z,61.44
2023-01-19T18:36:28.132Z,60.79
2023-01-19T18:41:31.917Z,60.18
2023-01-19T18:46:37.561Z,59.17
2023-01-19T18:51:41.503Z,58.93
2023-01-19T18:56:45.212Z,55.60
2023-01-19T19:01:50.597Z,53.79
2023-01-19T19:06:54.284Z,51.99
2023-01-19T19:11:58.255Z,52.81
2023-01-19T19:17:04.315Z,52.28
2023-01-19T19:22:07.162Z,51.22
2023-01-19T19:27:10.798Z,52.51
2023-01-19T19:32:16.774Z,50.18
2023-01-19T19:37:20.802Z,49.46
2023-01-19T19:42:24.620Z,51.09
2023-01-19T19:47:29.879Z,51.65
2023-01-19T19:52:38.027Z,53.03
2023-01-19T19:57:41.748Z,51.71
2023-01-19T20:02:47.009Z,51.36
2023-01-19T20:07:50.626Z,51.27
2023-01-19T20:12:54.290Z,52.90
2023-01-19T20:17:59.560Z,52.54
2023-01-19T20:23:03.362Z,51.01
2023-01-19T20:28:07.039Z,51.00
2023-01-19T20:33:13.490Z,50.78
2023-01-19T20:38:17.087Z,53.10
2023-01-19T20:43:20.767Z,49.50
2023-01-19T20:48:26.194Z,49.63
2023-01-19T20:53:30.043Z,50.23
2023-01-19T20:58:34.461Z,50.56
2023-01-19T21:03:39.782Z,49.45
2023-01-19T21:08:43.646Z,51.08
2023-01-19T21:13:47.449Z,49.13
2023-01-19T21:18:52.921Z,48.04
2023-01-19T21:23:58.075Z,50.13
2023-01-19T21:29:02.702Z,49.87
2023-01-19T21:34:08.009Z,51.72
2023-01-19T21:39:11.951Z,50.99
2023-01-19T21:44:15.946Z,49.62
2023-01-19T21:49:22.815Z,49.29
2023-01-19T21:54:26.937Z,49.84
2023-01-19T21:59:30.764Z,49.78
2023-01-19T22:04:36.901Z,49.84
2023-01-19T22:09:40.652Z,49.75
2023-01-19T22:14:44.255Z,49.48
2023-01-19T22:19:49.528Z,49.78
2023-01-19T22:24:53.451Z,50.52
2023-01-19T22:29:57.802Z,49.64
2023-01-19T22:35:03.147Z,50.55
2023-01-19T22:40:07.759Z,50.47
2023-01-19T22:45:12.198Z,49.63
2023-01-19T22:50:17.996Z,51.18
2023-01-19T22:55:21.638Z,53.48
2023-01-19T23:00:25.328Z,52.42
2023-01-19T23:05:30.663Z,53.48
2023-01-19T23:10:34.314Z,52.33
2023-01-19T23:15:38.013Z,53.42
2023-01-19T23:20:43.342Z,55.58
2023-01-19T23:25:47.027Z,55.90
2023-01-19T23:30:50.793Z,55.53
2023-01-19T23:35:57.825Z,57.73
2023-01-19T23:41:01.494Z,57.08
2023-01-19T23:46:05.456Z,57.14
2023-01-19T23:51:12.234Z,59.23
2023-01-19T23:56:17.644Z,61.36
